sensor_id;sensor_type;location;lat;lon;timestamp;P1;durP1;ratioP1;P2;durP2;ratioP2
60292;SDS011;52402;52.670;6.750;2022-12-18T00:01:25;100.07;;;40.03;;
60292;SDS011;52402;52.670;6.750;2022-12-18T00:03:52;95.88;;;37.83;;
60292;SDS011;52402;52.670;6.750;2022-12-18T00:06:19;142.52;;;61.30;;
60292;SDS011;52402;52.670;6.750;2022-12-18T00:08:45;104.93;;;44.22;;
60292;SDS011;52402;52.670;6.750;2022-12-18T00:11:12;154.90;;;74.68;;
60292;SDS011;52402;52.670;6.750;2022-12-18T00:13:40;85.30;;;35.63;;
60292;SDS011;52402;52.670;6.750;2022-12-18T00:16:07;91.28;;;38.00;;
60292;SDS011;52402;52.670;6.750;2022-12-18T00:18:34;101.82;;;39.05;;
60292;SDS011;52402;52.670;6.750;2022-12-18T00:21:00;107.90;;;44.33;;
60292;SDS011;52402;52.670;6.750;2022-12-18T00:23:28;124.78;;;51.30;;
60292;SDS011;52402;52.670;6.750;2022-12-18T00:25:54;129.15;;;51.70;;
60292;SDS011;52402;52.670;6.750;2022-12-18T00:28:23;111.05;;;43.03;;
60292;SDS011;52402;52.670;6.750;2022-12-18T00:30:49;78.82;;;24.63;;
60292;SDS011;52402;52.670;6.750;2022-12-18T00:33:16;74.13;;;26.80;;
60292;SDS011;52402;52.670;6.750;2022-12-18T00:35:42;110.40;;;45.63;;
60292;SDS011;52402;52.670;6.750;2022-12-18T00:38:08;101.80;;;41.83;;
60292;SDS011;52402;52.670;6.750;2022-12-18T00:40:33;109.80;;;47.38;;
60292;SDS011;52402;52.670;6.750;2022-12-18T00:42:59;92.88;;;34.28;;
60292;SDS011;52402;52.670;6.750;2022-12-18T00:45:27;70.07;;;23.77;;
60292;SDS011;52402;52.670;6.750;2022-12-18T00:47:54;77.80;;;24.58;;
60292;SDS011;52402;52.670;6.750;2022-12-18T00:50:20;75.00;;;26.33;;
60292;SDS011;52402;52.670;6.750;2022-12-18T00:52:47;106.85;;;42.70;;
60292;SDS011;52402;52.670;6.750;2022-12-18T00:55:13;78.93;;;35.33;;
60292;SDS011;52402;52.670;6.750;2022-12-18T00:57:39;111.22;;;47.97;;
60292;SDS011;52402;52.670;6.750;2022-12-18T01:00:06;93.95;;;36.78;;
60292;SDS011;52402;52.670;6.750;2022-12-18T01:02:33;90.40;;;36.85;;
60292;SDS011;52402;52.670;6.750;2022-12-18T01:04:58;77.85;;;32.53;;
60292;SDS011;52402;52.670;6.750;2022-12-18T01:07:24;94.07;;;37.40;;
60292;SDS011;52402;52.670;6.750;2022-12-18T01:09:49;89.97;;;39.42;;
60292;SDS011;52402;52.670;6.750;2022-12-18T01:12:15;135.60;;;66.22;;
60292;SDS011;52402;52.670;6.750;2022-12-18T01:14:41;63.95;;;23.50;;
60292;SDS011;52402;52.670;6.750;2022-12-18T01:17:06;64.65;;;22.15;;
60292;SDS011;52402;52.670;6.750;2022-12-18T01:19:32;67.75;;;23.13;;
60292;SDS011;52402;52.670;6.750;2022-12-18T01:21:58;67.72;;;23.35;;
60292;SDS011;52402;52.670;6.750;2022-12-18T01:24:24;84.30;;;32.92;;
60292;SDS011;52402;52.670;6.750;2022-12-18T01:26:50;48.85;;;18.55;;
60292;SDS011;52402;52.670;6.750;2022-12-18T01:29:15;74.25;;;29.65;;
60292;SDS011;52402;52.670;6.750;2022-12-18T01:31:41;71.93;;;23.52;;
60292;SDS011;52402;52.670;6.750;2022-12-18T01:34:07;70.15;;;25.48;;
60292;SDS011;52402;52.670;6.750;2022-12-18T01:36:35;108.20;;;48.60;;
60292;SDS011;52402;52.670;6.750;2022-12-18T01:39:04;65.95;;;22.83;;
60292;SDS011;52402;52.670;6.750;2022-12-18T01:41:32;98.75;;;40.60;;
60292;SDS011;52402;52.670;6.750;2022-12-18T01:47:32;70.32;;;25.73;;
60292;SDS011;52402;52.670;6.750;2022-12-18T01:50:28;68.38;;;24.23;;
60292;SDS011;52402;52.670;6.750;2022-12-18T01:53:06;64.55;;;23.73;;
60292;SDS011;52402;52.670;6.750;2022-12-18T01:55:45;89.55;;;35.00;;
60292;SDS011;52402;52.670;6.750;2022-12-18T01:58:17;72.65;;;25.20;;
60292;SDS011;52402;52.670;6.750;2022-12-18T02:00:44;64.13;;;23.13;;
60292;SDS011;52402;52.670;6.750;2022-12-18T02:03:10;76.93;;;30.80;;
60292;SDS011;52402;52.670;6.750;2022-12-18T02:05:52;60.60;;;24.08;;
60292;SDS011;52402;52.670;6.750;2022-12-18T02:13:38;82.50;;;34.63;;
60292;SDS011;52402;52.670;6.750;2022-12-18T02:18:54;59.63;;;21.25;;
60292;SDS011;52402;52.670;6.750;2022-12-18T02:23:58;77.50;;;32.47;;
60292;SDS011;52402;52.670;6.750;2022-12-18T02:26:48;52.95;;;19.05;;
60292;SDS011;52402;52.670;6.750;2022-12-18T02:32:02;56.42;;;23.45;;
60292;SDS011;52402;52.670;6.750;2022-12-18T02:34:31;61.92;;;22.30;;
60292;SDS011;52402;52.670;6.750;2022-12-18T02:37:02;82.53;;;35.13;;
60292;SDS011;52402;52.670;6.750;2022-12-18T02:39:32;72.18;;;27.95;;
60292;SDS011;52402;52.670;6.750;2022-12-18T02:42:00;54.60;;;20.35;;
60292;SDS011;52402;52.670;6.750;2022-12-18T02:44:33;68.15;;;31.02;;
60292;SDS011;52402;52.670;6.750;2022-12-18T02:47:00;57.03;;;26.48;;
60292;SDS011;52402;52.670;6.750;2022-12-18T02:52:25;50.85;;;19.52;;
60292;SDS011;52402;52.670;6.750;2022-12-18T02:57:56;46.75;;;19.20;;
60292;SDS011;52402;52.670;6.750;2022-12-18T03:00:45;63.70;;;30.67;;
60292;SDS011;52402;52.670;6.750;2022-12-18T03:03:23;48.88;;;19.27;;
60292;SDS011;52402;52.670;6.750;2022-12-18T03:05:53;58.10;;;19.90;;
60292;SDS011;52402;52.670;6.750;2022-12-18T03:08:31;50.33;;;18.70;;
60292;SDS011;52402;52.670;6.750;2022-12-18T03:11:04;46.90;;;19.10;;
60292;SDS011;52402;52.670;6.750;2022-12-18T03:13:36;64.50;;;30.45;;
60292;SDS011;52402;52.670;6.750;2022-12-18T03:16:25;52.20;;;22.98;;
60292;SDS011;52402;52.670;6.750;2022-12-18T03:19:03;45.15;;;18.45;;
60292;SDS011;52402;52.670;6.750;2022-12-18T03:21:35;58.33;;;27.30;;
60292;SDS011;52402;52.670;6.750;2022-12-18T03:24:18;47.75;;;19.80;;
60292;SDS011;52402;52.670;6.750;2022-12-18T03:26:47;53.88;;;26.67;;
60292;SDS011;52402;52.670;6.750;2022-12-18T03:29:19;53.20;;;25.58;;
60292;SDS011;52402;52.670;6.750;2022-12-18T03:31:51;43.75;;;17.00;;
60292;SDS011;52402;52.670;6.750;2022-12-18T03:34:22;45.45;;;16.73;;
60292;SDS011;52402;52.670;6.750;2022-12-18T03:36:51;50.70;;;28.02;;
60292;SDS011;52402;52.670;6.750;2022-12-18T03:39:17;40.70;;;17.63;;
60292;SDS011;52402;52.670;6.750;2022-12-18T03:41:44;43.20;;;18.30;;
60292;SDS011;52402;52.670;6.750;2022-12-18T03:46:58;42.33;;;16.52;;
60292;SDS011;52402;52.670;6.750;2022-12-18T03:53:08;35.40;;;15.50;;
60292;SDS011;52402;52.670;6.750;2022-12-18T03:55:40;44.58;;;19.70;;
60292;SDS011;52402;52.670;6.750;2022-12-18T03:58:07;38.30;;;17.08;;
60292;SDS011;52402;52.670;6.750;2022-12-18T04:00:34;42.53;;;20.65;;
60292;SDS011;52402;52.670;6.750;2022-12-18T04:03:00;37.28;;;16.25;;
60292;SDS011;52402;52.670;6.750;2022-12-18T04:05:28;36.67;;;16.60;;
60292;SDS011;52402;52.670;6.750;2022-12-18T04:07:57;42.35;;;17.05;;
60292;SDS011;52402;52.670;6.750;2022-12-18T04:10:23;44.25;;;23.42;;
60292;SDS011;52402;52.670;6.750;2022-12-18T04:12:48;36.42;;;16.98;;
60292;SDS011;52402;52.670;6.750;2022-12-18T04:15:14;43.92;;;18.55;;
60292;SDS011;52402;52.670;6.750;2022-12-18T04:17:43;38.78;;;15.75;;
60292;SDS011;52402;52.670;6.750;2022-12-18T04:20:13;34.83;;;15.38;;
60292;SDS011;52402;52.670;6.750;2022-12-18T04:22:38;37.15;;;15.93;;
60292;SDS011;52402;52.670;6.750;2022-12-18T04:25:04;36.22;;;15.65;;
60292;SDS011;52402;52.670;6.750;2022-12-18T04:27:30;37.10;;;15.95;;
60292;SDS011;52402;52.670;6.750;2022-12-18T04:29:55;38.17;;;15.82;;
60292;SDS011;52402;52.670;6.750;2022-12-18T04:32:21;34.13;;;15.10;;
60292;SDS011;52402;52.670;6.750;2022-12-18T04:34:47;41.13;;;21.17;;
60292;SDS011;52402;52.670;6.750;2022-12-18T04:37:12;36.97;;;15.18;;
60292;SDS011;52402;52.670;6.750;2022-12-18T04:39:38;36.83;;;17.90;;
60292;SDS011;52402;52.670;6.750;2022-12-18T04:42:04;36.63;;;17.80;;
60292;SDS011;52402;52.670;6.750;2022-12-18T04:44:29;39.45;;;21.45;;
60292;SDS011;52402;52.670;6.750;2022-12-18T04:46:55;40.22;;;20.15;;
60292;SDS011;52402;52.670;6.750;2022-12-18T04:49:20;37.00;;;15.07;;
60292;SDS011;52402;52.670;6.750;2022-12-18T04:51:46;30.23;;;14.68;;
60292;SDS011;52402;52.670;6.750;2022-12-18T04:54:12;35.50;;;14.60;;
60292;SDS011;52402;52.670;6.750;2022-12-18T04:56:37;28.33;;;13.50;;
60292;SDS011;52402;52.670;6.750;2022-12-18T04:59:03;30.27;;;12.65;;
60292;SDS011;52402;52.670;6.750;2022-12-18T05:01:29;29.02;;;14.00;;
60292;SDS011;52402;52.670;6.750;2022-12-18T05:03:55;30.13;;;14.60;;
60292;SDS011;52402;52.670;6.750;2022-12-18T05:06:20;32.70;;;16.70;;
60292;SDS011;52402;52.670;6.750;2022-12-18T05:08:46;31.83;;;15.57;;
60292;SDS011;52402;52.670;6.750;2022-12-18T05:11:12;35.53;;;18.98;;
60292;SDS011;52402;52.670;6.750;2022-12-18T05:13:41;28.60;;;11.45;;
60292;SDS011;52402;52.670;6.750;2022-12-18T05:16:07;40.17;;;20.25;;
60292;SDS011;52402;52.670;6.750;2022-12-18T05:18:33;26.67;;;13.80;;
60292;SDS011;52402;52.670;6.750;2022-12-18T05:20:59;32.22;;;13.48;;
60292;SDS011;52402;52.670;6.750;2022-12-18T05:23:25;27.13;;;12.13;;
60292;SDS011;52402;52.670;6.750;2022-12-18T05:25:52;35.15;;;15.20;;
60292;SDS011;52402;52.670;6.750;2022-12-18T05:28:19;33.80;;;15.10;;
60292;SDS011;52402;52.670;6.750;2022-12-18T05:30:51;31.85;;;14.23;;
60292;SDS011;52402;52.670;6.750;2022-12-18T05:33:19;31.90;;;12.73;;
60292;SDS011;52402;52.670;6.750;2022-12-18T05:35:50;27.48;;;12.77;;
60292;SDS011;52402;52.670;6.750;2022-12-18T05:38:17;31.83;;;13.88;;
60292;SDS011;52402;52.670;6.750;2022-12-18T05:40:43;34.67;;;18.15;;
60292;SDS011;52402;52.670;6.750;2022-12-18T05:43:09;34.95;;;16.33;;
60292;SDS011;52402;52.670;6.750;2022-12-18T05:45:38;35.88;;;13.80;;
60292;SDS011;52402;52.670;6.750;2022-12-18T05:48:04;31.50;;;14.00;;
60292;SDS011;52402;52.670;6.750;2022-12-18T05:50:30;33.33;;;18.27;;
60292;SDS011;52402;52.670;6.750;2022-12-18T05:52:58;26.70;;;11.23;;
60292;SDS011;52402;52.670;6.750;2022-12-18T05:55:24;28.98;;;14.45;;
60292;SDS011;52402;52.670;6.750;2022-12-18T05:57:51;26.80;;;12.43;;
60292;SDS011;52402;52.670;6.750;2022-12-18T06:00:16;34.05;;;18.88;;
60292;SDS011;52402;52.670;6.750;2022-12-18T06:02:45;34.03;;;18.30;;
60292;SDS011;52402;52.670;6.750;2022-12-18T06:05:12;30.63;;;13.65;;
60292;SDS011;52402;52.670;6.750;2022-12-18T06:07:38;26.10;;;11.13;;
60292;SDS011;52402;52.670;6.750;2022-12-18T06:10:03;29.85;;;12.25;;
60292;SDS011;52402;52.670;6.750;2022-12-18T06:12:29;31.95;;;15.40;;
60292;SDS011;52402;52.670;6.750;2022-12-18T06:14:55;24.98;;;13.45;;
60292;SDS011;52402;52.670;6.750;2022-12-18T06:17:21;30.17;;;13.38;;
60292;SDS011;52402;52.670;6.750;2022-12-18T06:19:46;24.88;;;13.40;;
60292;SDS011;52402;52.670;6.750;2022-12-18T06:22:12;24.20;;;12.25;;
60292;SDS011;52402;52.670;6.750;2022-12-18T06:24:37;26.25;;;12.70;;
60292;SDS011;52402;52.670;6.750;2022-12-18T06:27:03;25.50;;;12.00;;
60292;SDS011;52402;52.670;6.750;2022-12-18T06:29:29;25.83;;;12.48;;
60292;SDS011;52402;52.670;6.750;2022-12-18T06:31:54;33.17;;;15.48;;
60292;SDS011;52402;52.670;6.750;2022-12-18T06:34:20;29.40;;;14.05;;
60292;SDS011;52402;52.670;6.750;2022-12-18T06:36:45;28.55;;;14.05;;
60292;SDS011;52402;52.670;6.750;2022-12-18T06:39:11;27.38;;;17.13;;
60292;SDS011;52402;52.670;6.750;2022-12-18T06:41:36;27.33;;;15.63;;
60292;SDS011;52402;52.670;6.750;2022-12-18T06:44:02;25.35;;;12.82;;
60292;SDS011;52402;52.670;6.750;2022-12-18T06:46:28;27.70;;;11.88;;
60292;SDS011;52402;52.670;6.750;2022-12-18T06:48:53;31.92;;;17.35;;
60292;SDS011;52402;52.670;6.750;2022-12-18T06:51:20;28.10;;;11.23;;
60292;SDS011;52402;52.670;6.750;2022-12-18T06:53:46;27.85;;;13.57;;
60292;SDS011;52402;52.670;6.750;2022-12-18T06:56:12;34.55;;;15.90;;
60292;SDS011;52402;52.670;6.750;2022-12-18T06:58:38;29.60;;;13.40;;
60292;SDS011;52402;52.670;6.750;2022-12-18T07:01:05;20.50;;;10.75;;
60292;SDS011;52402;52.670;6.750;2022-12-18T07:03:32;25.63;;;12.65;;
60292;SDS011;52402;52.670;6.750;2022-12-18T07:05:58;29.20;;;13.73;;
60292;SDS011;52402;52.670;6.750;2022-12-18T07:08:24;25.00;;;11.82;;
60292;SDS011;52402;52.670;6.750;2022-12-18T07:10:50;20.02;;;10.50;;
60292;SDS011;52402;52.670;6.750;2022-12-18T07:13:15;27.23;;;12.52;;
60292;SDS011;52402;52.670;6.750;2022-12-18T07:15:41;29.70;;;13.25;;
60292;SDS011;52402;52.670;6.750;2022-12-18T07:18:07;26.67;;;12.73;;
60292;SDS011;52402;52.670;6.750;2022-12-18T07:20:33;25.00;;;11.48;;
60292;SDS011;52402;52.670;6.750;2022-12-18T07:22:58;23.33;;;13.88;;
60292;SDS011;52402;52.670;6.750;2022-12-18T07:25:27;21.38;;;12.38;;
60292;SDS011;52402;52.670;6.750;2022-12-18T07:27:53;22.70;;;11.90;;
60292;SDS011;52402;52.670;6.750;2022-12-18T07:30:19;22.85;;;12.70;;
60292;SDS011;52402;52.670;6.750;2022-12-18T07:32:45;22.85;;;10.63;;
60292;SDS011;52402;52.670;6.750;2022-12-18T07:35:10;29.55;;;12.70;;
60292;SDS011;52402;52.670;6.750;2022-12-18T07:37:36;25.25;;;11.48;;
60292;SDS011;52402;52.670;6.750;2022-12-18T07:40:01;25.10;;;11.75;;
60292;SDS011;52402;52.670;6.750;2022-12-18T07:42:27;23.85;;;11.88;;
60292;SDS011;52402;52.670;6.750;2022-12-18T07:44:56;27.30;;;11.93;;
60292;SDS011;52402;52.670;6.750;2022-12-18T07:47:22;20.98;;;9.30;;
60292;SDS011;52402;52.670;6.750;2022-12-18T07:49:48;23.45;;;12.43;;
60292;SDS011;52402;52.670;6.750;2022-12-18T07:52:14;23.98;;;13.32;;
60292;SDS011;52402;52.670;6.750;2022-12-18T07:54:40;27.88;;;14.63;;
60292;SDS011;52402;52.670;6.750;2022-12-18T07:57:09;22.08;;;10.70;;
60292;SDS011;52402;52.670;6.750;2022-12-18T07:59:34;23.15;;;10.80;;
60292;SDS011;52402;52.670;6.750;2022-12-18T08:02:01;29.10;;;13.27;;
60292;SDS011;52402;52.670;6.750;2022-12-18T08:04:32;26.77;;;18.60;;
60292;SDS011;52402;52.670;6.750;2022-12-18T08:06:57;23.92;;;11.65;;
60292;SDS011;52402;52.670;6.750;2022-12-18T08:09:23;30.13;;;12.85;;
60292;SDS011;52402;52.670;6.750;2022-12-18T08:11:48;24.83;;;12.82;;
60292;SDS011;52402;52.670;6.750;2022-12-18T08:14:14;21.67;;;12.40;;
60292;SDS011;52402;52.670;6.750;2022-12-18T08:16:40;29.30;;;16.25;;
60292;SDS011;52402;52.670;6.750;2022-12-18T08:19:05;24.45;;;11.82;;
60292;SDS011;52402;52.670;6.750;2022-12-18T08:21:31;27.98;;;15.63;;
60292;SDS011;52402;52.670;6.750;2022-12-18T08:23:58;27.05;;;14.48;;
60292;SDS011;52402;52.670;6.750;2022-12-18T08:26:25;20.85;;;9.60;;
60292;SDS011;52402;52.670;6.750;2022-12-18T08:28:53;24.65;;;11.48;;
60292;SDS011;52402;52.670;6.750;2022-12-18T08:31:20;28.50;;;16.15;;
60292;SDS011;52402;52.670;6.750;2022-12-18T08:33:48;21.40;;;13.75;;
60292;SDS011;52402;52.670;6.750;2022-12-18T08:36:14;25.70;;;15.23;;
60292;SDS011;52402;52.670;6.750;2022-12-18T08:38:40;15.02;;;8.32;;
60292;SDS011;52402;52.670;6.750;2022-12-18T08:41:07;22.10;;;11.75;;
60292;SDS011;52402;52.670;6.750;2022-12-18T08:43:34;24.33;;;12.00;;
60292;SDS011;52402;52.670;6.750;2022-12-18T08:46:18;20.65;;;11.00;;
60292;SDS011;52402;52.670;6.750;2022-12-18T08:48:45;23.63;;;11.35;;
60292;SDS011;52402;52.670;6.750;2022-12-18T08:51:11;19.95;;;10.57;;
60292;SDS011;52402;52.670;6.750;2022-12-18T08:53:37;26.25;;;13.25;;
60292;SDS011;52402;52.670;6.750;2022-12-18T08:56:04;21.17;;;8.32;;
60292;SDS011;52402;52.670;6.750;2022-12-18T08:58:30;25.35;;;15.77;;
60292;SDS011;52402;52.670;6.750;2022-12-18T09:01:00;20.63;;;9.85;;
60292;SDS011;52402;52.670;6.750;2022-12-18T09:03:27;22.52;;;12.70;;
60292;SDS011;52402;52.670;6.750;2022-12-18T09:05:52;22.15;;;10.35;;
60292;SDS011;52402;52.670;6.750;2022-12-18T09:08:18;22.70;;;10.57;;
60292;SDS011;52402;52.670;6.750;2022-12-18T09:10:44;23.30;;;10.90;;
60292;SDS011;52402;52.670;6.750;2022-12-18T09:13:11;25.15;;;12.55;;
60292;SDS011;52402;52.670;6.750;2022-12-18T09:15:44;22.13;;;11.45;;
60292;SDS011;52402;52.670;6.750;2022-12-18T09:18:11;22.40;;;11.57;;
60292;SDS011;52402;52.670;6.750;2022-12-18T09:20:37;25.13;;;15.15;;
60292;SDS011;52402;52.670;6.750;2022-12-18T09:23:04;21.15;;;10.18;;
60292;SDS011;52402;52.670;6.750;2022-12-18T09:25:30;21.02;;;10.35;;
60292;SDS011;52402;52.670;6.750;2022-12-18T09:28:14;17.63;;;8.90;;
60292;SDS011;52402;52.670;6.750;2022-12-18T09:30:46;23.80;;;13.82;;
60292;SDS011;52402;52.670;6.750;2022-12-18T09:33:13;20.73;;;12.98;;
60292;SDS011;52402;52.670;6.750;2022-12-18T09:35:40;23.70;;;13.75;;
60292;SDS011;52402;52.670;6.750;2022-12-18T09:38:07;21.13;;;8.77;;
60292;SDS011;52402;52.670;6.750;2022-12-18T09:40:36;18.60;;;8.77;;
60292;SDS011;52402;52.670;6.750;2022-12-18T09:43:06;11.77;;;7.20;;
60292;SDS011;52402;52.670;6.750;2022-12-18T09:45:42;15.23;;;8.25;;
60292;SDS011;52402;52.670;6.750;2022-12-18T09:48:14;19.02;;;11.15;;
60292;SDS011;52402;52.670;6.750;2022-12-18T09:50:44;19.52;;;10.95;;
60292;SDS011;52402;52.670;6.750;2022-12-18T09:53:19;17.70;;;10.05;;
60292;SDS011;52402;52.670;6.750;2022-12-18T09:55:49;16.35;;;8.82;;
60292;SDS011;52402;52.670;6.750;2022-12-18T09:58:31;18.23;;;9.45;;
60292;SDS011;52402;52.670;6.750;2022-12-18T10:01:37;17.20;;;9.48;;
60292;SDS011;52402;52.670;6.750;2022-12-18T10:03:57;17.92;;;8.48;;
60292;SDS011;52402;52.670;6.750;2022-12-18T10:14:36;14.48;;;10.02;;
60292;SDS011;52402;52.670;6.750;2022-12-18T10:17:26;18.35;;;8.05;;
60292;SDS011;52402;52.670;6.750;2022-12-18T10:23:21;24.58;;;12.77;;
60292;SDS011;52402;52.670;6.750;2022-12-18T10:25:34;16.00;;;10.15;;
60292;SDS011;52402;52.670;6.750;2022-12-18T10:28:20;14.55;;;7.85;;
60292;SDS011;52402;52.670;6.750;2022-12-18T10:30:47;16.30;;;10.82;;
60292;SDS011;52402;52.670;6.750;2022-12-18T10:33:21;11.02;;;8.70;;
60292;SDS011;52402;52.670;6.750;2022-12-18T10:35:51;14.15;;;8.98;;
60292;SDS011;52402;52.670;6.750;2022-12-18T10:40:48;13.88;;;7.80;;
60292;SDS011;52402;52.670;6.750;2022-12-18T10:43:14;13.98;;;8.85;;
60292;SDS011;52402;52.670;6.750;2022-12-18T10:45:41;17.52;;;10.10;;
60292;SDS011;52402;52.670;6.750;2022-12-18T10:48:22;12.65;;;6.72;;
60292;SDS011;52402;52.670;6.750;2022-12-18T10:50:49;14.65;;;11.15;;
60292;SDS011;52402;52.670;6.750;2022-12-18T10:53:22;13.95;;;7.03;;
60292;SDS011;52402;52.670;6.750;2022-12-18T10:55:53;16.15;;;7.65;;
60292;SDS011;52402;52.670;6.750;2022-12-18T11:00:47;13.00;;;6.90;;
60292;SDS011;52402;52.670;6.750;2022-12-18T11:11:00;14.50;;;6.63;;
60292;SDS011;52402;52.670;6.750;2022-12-18T11:13:27;13.68;;;9.85;;
60292;SDS011;52402;52.670;6.750;2022-12-18T11:15:55;12.13;;;6.18;;
60292;SDS011;52402;52.670;6.750;2022-12-18T11:18:25;18.50;;;10.88;;
60292;SDS011;52402;52.670;6.750;2022-12-18T11:21:14;14.45;;;6.22;;
60292;SDS011;52402;52.670;6.750;2022-12-18T11:23:52;13.30;;;8.00;;
60292;SDS011;52402;52.670;6.750;2022-12-18T11:26:18;15.23;;;6.57;;
60292;SDS011;52402;52.670;6.750;2022-12-18T11:28:51;12.88;;;9.32;;
60292;SDS011;52402;52.670;6.750;2022-12-18T11:31:31;10.05;;;5.28;;
60292;SDS011;52402;52.670;6.750;2022-12-18T11:34:11;11.65;;;5.53;;
60292;SDS011;52402;52.670;6.750;2022-12-18T11:36:43;12.95;;;9.65;;
60292;SDS011;52402;52.670;6.750;2022-12-18T11:47:57;11.68;;;5.32;;
60292;SDS011;52402;52.670;6.750;2022-12-18T11:53:02;12.05;;;5.72;;
60292;SDS011;52402;52.670;6.750;2022-12-18T12:00:59;10.48;;;4.97;;
60292;SDS011;52402;52.670;6.750;2022-12-18T12:08:52;11.82;;;5.63;;
60292;SDS011;52402;52.670;6.750;2022-12-18T12:11:39;14.02;;;5.57;;
60292;SDS011;52402;52.670;6.750;2022-12-18T12:14:14;13.68;;;11.30;;
60292;SDS011;52402;52.670;6.750;2022-12-18T12:16:50;15.00;;;11.07;;
60292;SDS011;52402;52.670;6.750;2022-12-18T12:22:03;10.70;;;5.50;;
60292;SDS011;52402;52.670;6.750;2022-12-18T12:27:33;13.07;;;10.07;;
60292;SDS011;52402;52.670;6.750;2022-12-18T12:30:06;12.60;;;8.63;;
60292;SDS011;52402;52.670;6.750;2022-12-18T12:32:58;13.38;;;6.13;;
60292;SDS011;52402;52.670;6.750;2022-12-18T12:35:44;11.73;;;6.03;;
60292;SDS011;52402;52.670;6.750;2022-12-18T12:38:24;11.50;;;5.93;;
60292;SDS011;52402;52.670;6.750;2022-12-18T12:40:54;12.23;;;6.07;;
60292;SDS011;52402;52.670;6.750;2022-12-18T12:43:32;14.88;;;12.15;;
60292;SDS011;52402;52.670;6.750;2022-12-18T12:46:10;14.02;;;11.65;;
60292;SDS011;52402;52.670;6.750;2022-12-18T12:48:40;15.02;;;11.90;;
60292;SDS011;52402;52.670;6.750;2022-12-18T12:53:44;15.98;;;13.00;;
60292;SDS011;52402;52.670;6.750;2022-12-18T12:56:11;14.40;;;10.70;;
60292;SDS011;52402;52.670;6.750;2022-12-18T12:59:26;9.18;;;5.05;;
60292;SDS011;52402;52.670;6.750;2022-12-18T13:01:35;15.43;;;12.80;;
60292;SDS011;52402;52.670;6.750;2022-12-18T13:04:31;10.80;;;6.25;;
60292;SDS011;52402;52.670;6.750;2022-12-18T13:07:22;14.43;;;6.35;;
60292;SDS011;52402;52.670;6.750;2022-12-18T13:13:17;13.30;;;6.70;;
60292;SDS011;52402;52.670;6.750;2022-12-18T13:20:45;17.27;;;13.65;;
60292;SDS011;52402;52.670;6.750;2022-12-18T13:25:51;10.52;;;6.32;;
60292;SDS011;52402;52.670;6.750;2022-12-18T13:31:01;14.52;;;10.38;;
60292;SDS011;52402;52.670;6.750;2022-12-18T13:36:13;14.80;;;12.10;;
60292;SDS011;52402;52.670;6.750;2022-12-18T13:39:09;17.70;;;14.55;;
60292;SDS011;52402;52.670;6.750;2022-12-18T13:41:34;17.08;;;14.07;;
60292;SDS011;52402;52.670;6.750;2022-12-18T13:44:42;16.13;;;13.13;;
60292;SDS011;52402;52.670;6.750;2022-12-18T13:46:51;16.23;;;14.30;;
60292;SDS011;52402;52.670;6.750;2022-12-18T13:49:22;13.60;;;7.80;;
60292;SDS011;52402;52.670;6.750;2022-12-18T13:52:00;14.15;;;7.63;;
60292;SDS011;52402;52.670;6.750;2022-12-18T13:57:04;14.25;;;7.32;;
60292;SDS011;52402;52.670;6.750;2022-12-18T14:02:23;16.85;;;13.93;;
60292;SDS011;52402;52.670;6.750;2022-12-18T14:04:51;15.30;;;8.07;;
60292;SDS011;52402;52.670;6.750;2022-12-18T14:07:19;18.00;;;13.52;;
60292;SDS011;52402;52.670;6.750;2022-12-18T14:09:49;17.05;;;14.73;;
60292;SDS011;52402;52.670;6.750;2022-12-18T14:17:54;17.25;;;15.43;;
60292;SDS011;52402;52.670;6.750;2022-12-18T14:20:25;15.05;;;8.15;;
60292;SDS011;52402;52.670;6.750;2022-12-18T14:22:56;16.90;;;14.23;;
60292;SDS011;52402;52.670;6.750;2022-12-18T14:30:51;11.07;;;6.82;;
60292;SDS011;52402;52.670;6.750;2022-12-18T14:33:20;15.82;;;7.97;;
60292;SDS011;52402;52.670;6.750;2022-12-18T14:36:01;18.13;;;11.65;;
60292;SDS011;52402;52.670;6.750;2022-12-18T14:38:37;20.13;;;17.75;;
60292;SDS011;52402;52.670;6.750;2022-12-18T14:43:32;20.00;;;17.58;;
60292;SDS011;52402;52.670;6.750;2022-12-18T14:46:06;19.98;;;17.50;;
60292;SDS011;52402;52.670;6.750;2022-12-18T14:49:02;20.73;;;18.52;;
60292;SDS011;52402;52.670;6.750;2022-12-18T14:51:47;18.75;;;13.45;;
60292;SDS011;52402;52.670;6.750;2022-12-18T14:54:15;22.20;;;19.30;;
60292;SDS011;52402;52.670;6.750;2022-12-18T14:56:44;20.15;;;18.05;;
60292;SDS011;52402;52.670;6.750;2022-12-18T14:59:15;17.55;;;12.35;;
60292;SDS011;52402;52.670;6.750;2022-12-18T15:01:45;17.55;;;8.52;;
60292;SDS011;52402;52.670;6.750;2022-12-18T15:04:53;17.90;;;9.52;;
60292;SDS011;52402;52.670;6.750;2022-12-18T15:07:12;15.50;;;8.60;;
60292;SDS011;52402;52.670;6.750;2022-12-18T15:20:41;20.75;;;18.33;;
60292;SDS011;52402;52.670;6.750;2022-12-18T15:23:17;17.38;;;13.95;;
60292;SDS011;52402;52.670;6.750;2022-12-18T15:28:21;14.45;;;8.45;;
60292;SDS011;52402;52.670;6.750;2022-12-18T15:31:17;16.10;;;9.50;;
60292;SDS011;52402;52.670;6.750;2022-12-18T15:36:19;17.70;;;9.85;;
60292;SDS011;52402;52.670;6.750;2022-12-18T15:38:48;22.05;;;19.65;;
60292;SDS011;52402;52.670;6.750;2022-12-18T15:41:14;17.65;;;9.82;;
60292;SDS011;52402;52.670;6.750;2022-12-18T15:46:12;17.17;;;9.45;;
60292;SDS011;52402;52.670;6.750;2022-12-18T15:48:43;17.48;;;9.82;;
60292;SDS011;52402;52.670;6.750;2022-12-18T15:51:14;16.63;;;9.48;;
60292;SDS011;52402;52.670;6.750;2022-12-18T15:53:43;19.38;;;10.60;;
60292;SDS011;52402;52.670;6.750;2022-12-18T15:56:12;18.13;;;9.02;;
60292;SDS011;52402;52.670;6.750;2022-12-18T15:58:58;22.27;;;19.60;;
60292;SDS011;52402;52.670;6.750;2022-12-18T16:01:24;14.32;;;8.95;;
60292;SDS011;52402;52.670;6.750;2022-12-18T16:03:52;23.70;;;20.55;;
60292;SDS011;52402;52.670;6.750;2022-12-18T16:06:19;23.33;;;20.83;;
60292;SDS011;52402;52.670;6.750;2022-12-18T16:08:45;18.00;;;8.80;;
60292;SDS011;52402;52.670;6.750;2022-12-18T16:11:29;19.00;;;10.20;;
60292;SDS011;52402;52.670;6.750;2022-12-18T16:14:24;20.50;;;10.52;;
60292;SDS011;52402;52.670;6.750;2022-12-18T16:16:54;19.35;;;13.90;;
60292;SDS011;52402;52.670;6.750;2022-12-18T16:19:21;20.98;;;14.50;;
60292;SDS011;52402;52.670;6.750;2022-12-18T16:21:47;19.45;;;10.00;;
60292;SDS011;52402;52.670;6.750;2022-12-18T16:24:24;25.27;;;20.85;;
60292;SDS011;52402;52.670;6.750;2022-12-18T16:26:55;18.73;;;8.95;;
60292;SDS011;52402;52.670;6.750;2022-12-18T16:29:24;17.08;;;9.77;;
60292;SDS011;52402;52.670;6.750;2022-12-18T16:31:58;23.92;;;18.98;;
60292;SDS011;52402;52.670;6.750;2022-12-18T16:36:55;18.10;;;9.57;;
60292;SDS011;52402;52.670;6.750;2022-12-18T16:39:23;18.67;;;9.23;;
60292;SDS011;52402;52.670;6.750;2022-12-18T16:41:49;16.88;;;9.95;;
60292;SDS011;52402;52.670;6.750;2022-12-18T16:44:14;22.20;;;19.20;;
60292;SDS011;52402;52.670;6.750;2022-12-18T16:46:41;22.05;;;17.15;;
60292;SDS011;52402;52.670;6.750;2022-12-18T16:49:13;21.80;;;17.88;;
60292;SDS011;52402;52.670;6.750;2022-12-18T16:51:40;23.50;;;20.23;;
60292;SDS011;52402;52.670;6.750;2022-12-18T16:54:06;16.77;;;9.50;;
60292;SDS011;52402;52.670;6.750;2022-12-18T16:56:32;17.45;;;9.40;;
60292;SDS011;52402;52.670;6.750;2022-12-18T16:58:58;19.30;;;9.85;;